Time;durP1;ratioP1;P1;durP2;ratioP2;P2;SDS_P1;SDS_P2;PMS_P1;PMS_P2;Temp;Humidity;BMP_temperature;BMP_pressure;BME280_temperature;BME280_humidity;BME280_pressure;Samples;Min_cycle;Max_cycle;Signal;HPM_P1;HPM_P2
2023/06/08 00:00:39;;;;;;;13.63;6.72;;;;;;;19.54;50.84;101725.72;5069871;28;20032;-64
2023/06/08 00:03:05;;;;;;;16.67;7.43;;;;;;;19.54;50.80;101724.91;5057069;28;20036;-63
2023/06/08 00:05:31;;;;;;;13.85;7.18;;;;;;;19.57;50.63;101718.66;5066473;28;20036;-63
2023/06/08 00:07:57;;;;;;;17.58;6.90;;;;;;;19.44;50.77;101719.31;5091497;28;20024;-63
2023/06/08 00:10:23;;;;;;;13.45;7.05;;;;;;;19.54;50.75;101719.25;5083178;28;20028;-63
2023/06/08 00:12:48;;;;;;;15.65;7.10;;;;;;;19.43;50.98;101717.66;5073458;28;20518;-63
2023/06/08 00:15:13;;;;;;;11.25;6.20;;;;;;;19.46;50.71;101715.09;5089700;28;20119;-63
2023/06/08 00:17:39;;;;;;;11.77;6.97;;;;;;;19.52;50.93;101718.69;5086513;28;20073;-63
2023/06/08 00:20:08;;;;;;;12.57;7.22;;;;;;;19.49;50.74;101708.88;5057964;28;20037;-63
2023/06/08 00:22:36;;;;;;;14.05;6.95;;;;;;;19.44;50.65;101708.06;5062495;28;20116;-63
2023/06/08 00:25:02;;;;;;;15.50;7.68;;;;;;;19.37;50.99;101706.44;5088962;28;20169;-63
2023/06/08 00:27:27;;;;;;;15.95;7.15;;;;;;;19.37;50.72;101706.44;5084679;28;20106;-63
2023/06/08 00:29:53;;;;;;;14.80;7.10;;;;;;;19.36;50.87;101712.34;5077401;28;20563;-63
2023/06/08 00:32:18;;;;;;;11.43;6.97;;;;;;;19.37;51.06;101703.63;5086776;28;20055;-64
2023/06/08 00:34:43;;;;;;;11.63;6.63;;;;;;;19.35;50.98;101708.69;5072422;28;20036;-63
2023/06/08 00:37:09;;;;;;;14.75;7.28;;;;;;;19.35;51.15;101705.88;5062260;28;20029;-63
2023/06/08 00:39:34;;;;;;;12.02;6.40;;;;;;;19.29;51.24;101715.47;5066475;28;20380;-63
2023/06/08 00:41:59;;;;;;;14.10;6.93;;;;;;;19.23;51.17;101708.19;5069752;28;20388;-63
2023/06/08 00:44:25;;;;;;;16.13;7.30;;;;;;;19.25;51.43;101707.91;5091025;28;20023;-63
2023/06/08 00:46:51;;;;;;;15.82;7.75;;;;;;;19.24;51.48;101707.06;5089176;28;20027;-63
2023/06/08 00:49:18;;;;;;;16.58;7.38;;;;;;;19.13;51.84;101694.19;5074291;28;20754;-63
2023/06/08 00:51:45;;;;;;;15.90;7.47;;;;;;;19.05;52.01;101694.78;5081308;28;20038;-62
2023/06/08 00:54:12;;;;;;;12.88;7.50;;;;;;;19.15;51.76;101697.56;5088632;28;20755;-62
2023/06/08 00:56:40;;;;;;;16.67;7.43;;;;;;;19.14;51.93;101690.25;5090438;28;20027;-62
2023/06/08 00:59:07;;;;;;;17.05;7.57;;;;;;;19.12;52.07;101689.69;5084559;28;20369;-62
2023/06/08 01:01:35;;;;;;;14.90;7.55;;;;;;;19.05;52.12;101677.91;5076910;28;20027;-62
2023/06/08 01:04:07;;;;;;;12.95;7.10;;;;;;;19.14;51.91;101693.06;5089002;28;20036;-63
2023/06/08 01:06:37;;;;;;;16.77;7.88;;;;;;;19.11;51.95;101685.19;5068986;28;20476;-62
2023/06/08 01:09:26;;;;;;;16.95;7.82;;;;;;;19.02;52.08;101686.91;5076294;28;20286;-63
2023/06/08 01:12:18;;;;;;;13.80;7.60;;;;;;;19.02;52.24;101686.91;5085140;28;20044;-62
2023/06/08 01:14:58;;;;;;;11.88;7.55;;;;;;;19.00;52.53;101692.00;5084488;28;20047;-63
2023/06/08 01:17:32;;;;;;;10.68;7.25;;;;;;;18.89;52.82;101694.88;5090507;28;20024;-63
2023/06/08 01:20:07;;;;;;;15.77;7.25;;;;;;;18.93;52.50;101691.47;5073651;28;20042;-62
2023/06/08 01:22:56;;;;;;;14.30;7.68;;;;;;;18.89;52.64;101694.03;5065271;28;20029;-63
2023/06/08 01:25:23;;;;;;;15.38;7.40;;;;;;;18.91;52.47;101688.13;5069910;28;20476;-63
2023/06/08 01:27:48;;;;;;;13.10;7.18;;;;;;;18.78;52.90;101681.97;5083284;28;20387;-62
2023/06/08 01:30:14;;;;;;;20.33;7.38;;;;;;;18.86;52.64;101677.72;5088632;28;20023;-64
2023/06/08 01:32:39;;;;;;;14.52;7.20;;;;;;;18.84;52.88;101685.63;5080363;28;20383;-63
2023/06/08 01:35:05;;;;;;;11.85;7.05;;;;;;;18.76;53.06;101678.63;5070032;28;20412;-63
2023/06/08 01:37:42;;;;;;;13.85;7.82;;;;;;;18.78;52.91;101673.53;5075199;28;20028;-63
2023/06/08 01:40:18;;;;;;;13.05;7.70;;;;;;;18.65;53.35;101685.38;5061294;28;20143;-63
2023/06/08 01:42:48;;;;;;;13.82;7.63;;;;;;;18.64;53.17;101678.09;5068810;28;20040;-63
2023/06/08 01:45:18;;;;;;;14.52;7.95;;;;;;;18.65;53.37;101676.94;5068927;28;20110;-63
2023/06/08 01:47:50;;;;;;;12.50;7.82;;;;;;;18.61;53.53;101681.47;5089577;28;20082;-63
2023/06/08 01:50:17;;;;;;;15.00;7.90;;;;;;;18.52;53.72;101674.75;5087514;28;20118;-63
2023/06/08 01:52:43;;;;;;;18.13;7.88;;;;;;;18.51;53.81;101673.06;5080519;28;20466;-63
2023/06/08 01:55:20;;;;;;;13.30;7.68;;;;;;;18.60;53.47;101669.38;5066903;28;20112;-63
2023/06/08 01:57:46;;;;;;;13.15;7.35;;;;;;;18.42;53.94;101664.38;5063492;28;20480;-63
2023/06/08 02:00:14;;;;;;;15.63;8.02;;;;;;;18.46;53.71;101661.84;5073613;28;20557;-64
2023/06/08 02:02:39;;;;;;;14.65;8.65;;;;;;;18.46;53.88;101656.22;5084427;28;20090;-64
2023/06/08 02:05:08;;;;;;;16.05;7.93;;;;;;;18.46;54.02;101662.69;5071862;28;20040;-64
2023/06/08 02:07:34;;;;;;;18.40;7.53;;;;;;;18.38;54.06;101666.09;5066581;28;20036;-64
2023/06/08 02:09:59;;;;;;;16.25;8.70;;;;;;;18.38;53.94;101661.28;5068264;28;20036;-64
2023/06/08 02:12:25;;;;;;;18.60;8.73;;;;;;;18.38;54.13;101661.28;5074076;28;20043;-63
2023/06/08 02:14:50;;;;;;;16.23;8.18;;;;;;;18.38;54.00;101666.91;5058222;28;20484;-64
2023/06/08 02:17:25;;;;;;;16.80;8.05;;;;;;;18.27;54.42;101665.25;5068472;28;20456;-64
2023/06/08 02:19:51;;;;;;;17.17;8.20;;;;;;;18.30;54.26;101667.50;5079232;28;20033;-64
2023/06/08 02:22:16;;;;;;;12.77;8.10;;;;;;;18.24;54.34;101676.25;5077564;28;20503;-64
2023/06/08 02:24:42;;;;;;;17.75;8.02;;;;;;;18.15;54.45;101673.16;5071465;28;20032;-64
2023/06/08 02:27:08;;;;;;;14.73;8.05;;;;;;;18.11;54.66;101669.25;5072881;28;20065;-64
2023/06/08 02:29:35;;;;;;;18.13;8.50;;;;;;;18.03;54.66;101670.66;5063752;28;20025;-64
2023/06/08 02:32:00;;;;;;;15.20;8.43;;;;;;;18.09;54.63;101674.31;5066924;28;20024;-64
2023/06/08 02:34:26;;;;;;;18.30;8.45;;;;;;;18.03;54.87;101669.81;5063776;28;20849;-64
2023/06/08 02:36:51;;;;;;;13.85;8.18;;;;;;;18.02;54.98;101676.56;5071420;28;20040;-64
2023/06/08 02:39:16;;;;;;;16.88;8.68;;;;;;;18.03;54.75;101678.25;5072415;28;20131;-63
2023/06/08 02:41:42;;;;;;;16.85;8.07;;;;;;;18.04;54.85;101674.34;5072826;28;20115;-64
2023/06/08 02:44:07;;;;;;;15.23;8.20;;;;;;;18.04;54.84;101675.16;5070047;28;20036;-64
2023/06/08 02:46:32;;;;;;;15.82;8.70;;;;;;;17.94;54.92;101666.75;5071361;28;20025;-64
2023/06/08 02:49:00;;;;;;;18.83;9.63;;;;;;;17.86;55.21;101670.13;5070890;28;20391;-64
2023/06/08 02:51:25;;;;;;;14.63;8.48;;;;;;;17.77;55.40;101669.03;5073211;28;20029;-64
2023/06/08 02:53:50;;;;;;;18.17;9.43;;;;;;;17.73;55.43;101668.72;5066143;28;20033;-64
2023/06/08 02:56:16;;;;;;;18.17;9.55;;;;;;;17.74;55.42;101661.13;5075209;28;20029;-64
2023/06/08 02:58:46;;;;;;;16.73;9.52;;;;;;;17.77;55.46;101664.25;5069859;28;20028;-64
2023/06/08 03:01:14;;;;;;;18.13;9.00;;;;;;;17.64;55.56;101673.19;5072484;28;20106;-64
2023/06/08 03:03:44;;;;;;;18.33;9.27;;;;;;;17.64;55.72;101673.19;5073076;28;20448;-64
2023/06/08 03:06:12;;;;;;;16.83;9.25;;;;;;;17.56;55.90;101668.97;5066880;28;20024;-64
2023/06/08 03:08:37;;;;;;;19.52;9.43;;;;;;;17.64;55.79;101670.38;5074564;28;20043;-64
2023/06/08 03:11:03;;;;;;;17.38;9.07;;;;;;;17.69;55.44;101667.59;5072257;28;20400;-64
2023/06/08 03:13:28;;;;;;;14.23;9.05;;;;;;;17.63;55.69;101663.09;5064906;28;20048;-64
2023/06/08 03:15:53;;;;;;;16.50;9.25;;;;;;;17.59;55.87;101661.97;5055212;28;20492;-64
2023/06/08 03:18:18;;;;;;;15.43;9.27;;;;;;;17.61;55.67;101656.91;5072340;28;20084;-64
2023/06/08 03:20:44;;;;;;;18.35;8.85;;;;;;;17.58;55.76;101657.47;5053320;28;20037;-64
2023/06/08 03:23:09;;;;;;;18.15;8.95;;;;;;;17.59;55.81;101659.16;5067712;28;20044;-64
2023/06/08 03:25:36;;;;;;;18.10;9.23;;;;;;;17.60;55.74;101666.44;5070440;28;20028;-64
2023/06/08 03:28:02;;;;;;;18.42;9.38;;;;;;;17.50;55.93;101658.03;5074101;28;20440;-64
2023/06/08 03:30:28;;;;;;;14.85;8.63;;;;;;;17.48;55.87;101668.69;5068146;28;20076;-64
2023/06/08 03:32:54;;;;;;;16.38;9.27;;;;;;;17.41;56.22;101678.25;5089568;28;20032;-62
2023/06/08 03:35:19;;;;;;;20.30;9.13;;;;;;;17.50;56.00;101661.69;5085770;28;20031;-62
2023/06/08 03:37:45;;;;;;;21.33;9.43;;;;;;;17.54;55.91;101673.19;5071792;28;20028;-61
2023/06/08 03:40:10;;;;;;;16.73;9.25;;;;;;;17.48;56.00;101675.13;5071088;28;20036;-61
2023/06/08 03:42:36;;;;;;;17.55;9.70;;;;;;;17.44;56.09;101671.22;5069270;28;20786;-62
2023/06/08 03:45:01;;;;;;;16.05;9.55;;;;;;;17.40;56.24;101672.88;5084141;28;20062;-62
2023/06/08 03:47:26;;;;;;;13.77;9.60;;;;;;;17.41;56.49;101669.00;5069975;28;20021;-63
2023/06/08 03:49:52;;;;;;;18.02;10.05;;;;;;;17.43;56.20;101672.34;5071452;28;20040;-62
2023/06/08 03:52:18;;;;;;;15.48;9.60;;;;;;;17.31;56.52;101663.34;5071728;28;20027;-63
2023/06/08 03:54:44;;;;;;;17.77;9.48;;;;;;;17.26;56.58;101667.00;5084149;28;20059;-62
2023/06/08 03:57:10;;;;;;;18.27;10.35;;;;;;;17.26;56.67;101668.97;5073841;28;20072;-62
2023/06/08 03:59:36;;;;;;;17.38;9.07;;;;;;;17.17;56.73;101671.44;5091748;28;20036;-62
2023/06/08 04:02:01;;;;;;;19.80;10.00;;;;;;;17.11;57.07;101670.59;5075278;28;20652;-62
2023/06/08 04:04:29;;;;;;;17.58;9.48;;;;;;;17.12;57.08;101665.84;5070246;28;20036;-63
2023/06/08 04:07:00;;;;;;;17.10;9.75;;;;;;;17.15;56.90;101666.13;5071651;28;20479;-63
2023/06/08 04:09:27;;;;;;;14.85;9.48;;;;;;;17.11;57.12;101664.16;5068518;28;20494;-63
2023/06/08 04:11:52;;;;;;;18.25;9.43;;;;;;;17.16;57.06;101669.78;5070750;28;20041;-62
2023/06/08 04:14:17;;;;;;;17.15;9.55;;;;;;;17.20;56.77;101668.09;5067033;28;20622;-62
2023/06/08 04:16:42;;;;;;;16.70;9.85;;;;;;;17.12;57.43;101663.88;5077558;28;20048;-62
2023/06/08 04:19:09;;;;;;;16.02;10.02;;;;;;;16.99;57.32;101669.19;5068247;28;20047;-62
2023/06/08 04:21:35;;;;;;;17.88;10.73;;;;;;;17.06;57.27;101667.81;5077483;28;20361;-62
2023/06/08 04:24:01;;;;;;;17.17;10.52;;;;;;;17.06;57.16;101662.19;5082735;28;20020;-63
2023/06/08 04:26:26;;;;;;;19.25;10.80;;;;;;;17.10;57.15;101665.28;5070397;28;20472;-63
2023/06/08 04:28:52;;;;;;;18.23;10.45;;;;;;;17.07;57.16;101660.22;5070042;28;20032;-63
2023/06/08 04:31:17;;;;;;;19.65;11.23;;;;;;;17.01;57.29;101658.50;5062161;28;20058;-63
2023/06/08 04:33:43;;;;;;;19.23;10.68;;;;;;;17.01;57.21;101658.50;5080771;28;20165;-63
2023/06/08 04:36:08;;;;;;;16.35;10.88;;;;;;;16.97;57.45;101658.22;5080316;28;20031;-63
2023/06/08 04:38:34;;;;;;;19.58;10.48;;;;;;;16.97;57.51;101661.03;5059255;28;20054;-63
2023/06/08 04:41:01;;;;;;;20.55;10.23;;;;;;;17.10;56.98;101657.72;5071609;28;20376;-64
2023/06/08 04:43:30;;;;;;;20.25;11.10;;;;;;;17.04;56.96;101650.38;5086410;28;20031;-63
2023/06/08 04:45:57;;;;;;;18.10;10.80;;;;;;;17.04;57.11;101656.00;5090239;28;20098;-62
2023/06/08 04:48:25;;;;;;;18.77;10.48;;;;;;;17.03;57.08;101656.28;5071429;28;20020;-63
2023/06/08 04:50:51;;;;;;;15.50;10.45;;;;;;;17.07;57.00;101654.63;5074594;28;20024;-63
2023/06/08 04:53:16;;;;;;;17.33;11.07;;;;;;;17.01;57.00;101659.34;5086645;28;20016;-63
2023/06/08 04:55:44;;;;;;;18.13;11.50;;;;;;;17.03;56.97;101657.13;5059672;28;20098;-62
2023/06/08 04:58:11;;;;;;;18.15;11.25;;;;;;;17.09;56.72;101660.78;5060167;28;20021;-62
2023/06/08 05:00:36;;;;;;;20.25;11.25;;;;;;;17.03;57.04;101659.09;5065422;28;20070;-62
2023/06/08 05:03:01;;;;;;;18.83;11.45;;;;;;;17.00;56.96;101659.63;5060291;28;20031;-62
2023/06/08 05:05:27;;;;;;;16.25;10.93;;;;;;;17.10;56.89;101657.72;5068273;28;20486;-63
2023/06/08 05:07:52;;;;;;;20.05;10.85;;;;;;;17.11;56.80;101653.78;5084504;28;20028;-63
2023/06/08 05:10:17;;;;;;;17.98;11.65;;;;;;;17.18;56.31;101656.31;5084537;28;20028;-63
2023/06/08 05:12:43;;;;;;;18.10;11.15;;;;;;;17.14;56.46;101658.84;5061533;28;20089;-62
2023/06/08 05:15:08;;;;;;;21.60;11.23;;;;;;;17.14;56.42;101649.59;5060496;28;20033;-63
2023/06/08 05:17:34;;;;;;;18.40;10.63;;;;;;;17.20;56.37;101651.25;5068794;28;20435;-63
2023/06/08 05:19:59;;;;;;;17.25;10.68;;;;;;;17.18;56.42;101647.91;5065442;28;20482;-62
2023/06/08 05:22:25;;;;;;;19.52;11.00;;;;;;;17.09;56.50;101661.63;5078296;28;20020;-62
2023/06/08 05:24:50;;;;;;;17.65;10.55;;;;;;;17.15;56.39;101649.28;5089505;28;20038;-62
2023/06/08 05:27:15;;;;;;;16.95;10.48;;;;;;;17.25;56.21;101659.72;5072239;28;20160;-62
2023/06/08 05:29:40;;;;;;;17.35;10.82;;;;;;;17.28;56.20;101658.28;5057986;28;20048;-63
2023/06/08 05:32:06;;;;;;;17.67;10.50;;;;;;;17.25;55.94;101654.09;5066881;28;20028;-62
2023/06/08 05:34:32;;;;;;;17.25;10.65;;;;;;;17.28;55.90;101647.06;5068638;28;20028;-62
2023/06/08 05:36:57;;;;;;;23.50;11.93;;;;;;;17.29;55.83;101646.81;5064291;28;20055;-63
2023/06/08 05:39:22;;;;;;;18.75;10.80;;;;;;;17.37;55.34;101649.06;5069637;28;20039;-63
2023/06/08 05:41:47;;;;;;;18.17;10.98;;;;;;;17.42;55.36;101642.59;5069234;28;20032;-63
2023/06/08 05:44:13;;;;;;;20.40;10.30;;;;;;;17.40;55.40;101640.06;5078313;28;20110;-64
2023/06/08 05:46:38;;;;;;;22.02;11.55;;;;;;;17.42;55.58;101637.81;5080177;28;20024;-65
2023/06/08 05:49:03;;;;;;;21.05;11.80;;;;;;;17.47;55.26;101628.56;5072030;28;20032;-64
2023/06/08 05:51:29;;;;;;;16.55;10.95;;;;;;;17.49;55.17;101645.09;5088404;28;20024;-64
2023/06/08 05:53:55;;;;;;;20.52;11.70;;;;;;;17.43;55.13;101627.44;5072089;28;20024;-61
2023/06/08 05:56:21;;;;;;;18.55;11.50;;;;;;;17.42;55.09;101629.41;5068092;28;20043;-62
2023/06/08 05:58:46;;;;;;;20.73;12.50;;;;;;;17.49;55.35;101633.88;5073301;28;20032;-62
2023/06/08 06:01:12;;;;;;;18.27;10.93;;;;;;;17.53;55.22;101637.84;5079883;28;20058;-62
2023/06/08 06:03:37;;;;;;;15.15;11.23;;;;;;;17.60;55.22;101638.38;5086528;28;20115;-64
2023/06/08 06:06:02;;;;;;;19.10;12.15;;;;;;;17.66;54.93;101637.25;5087534;28;20024;-64
2023/06/08 06:08:28;;;;;;;18.75;11.93;;;;;;;17.67;54.98;101636.97;5069095;28;20467;-63
2023/06/08 06:10:53;;;;;;;18.75;12.55;;;;;;;17.73;54.90;101634.19;5065509;28;20503;-64
2023/06/08 06:13:19;;;;;;;18.67;11.77;;;;;;;17.74;54.88;101638.66;5055387;28;20051;-64
2023/06/08 06:15:44;;;;;;;17.60;12.20;;;;;;;17.74;55.00;101630.22;5086503;28;20223;-64
2023/06/08 06:18:09;;;;;;;19.40;12.25;;;;;;;17.76;54.98;101637.25;5084373;28;20034;-64
2023/06/08 06:20:35;;;;;;;24.13;12.50;;;;;;;17.81;54.80;101636.44;5080749;28;20040;-64
2023/06/08 06:23:00;;;;;;;20.45;12.95;;;;;;;17.86;54.76;101631.66;5065738;28;20067;-64
2023/06/08 06:25:25;;;;;;;19.38;12.95;;;;;;;17.95;54.87;101636.69;5068340;28;20044;-62
2023/06/08 06:27:50;;;;;;;18.95;12.65;;;;;;;17.91;54.81;101645.66;5057841;28;20388;-62
2023/06/08 06:30:16;;;;;;;19.45;12.95;;;;;;;17.98;54.55;101639.78;5069634;28;20060;-62
2023/06/08 06:32:41;;;;;;;18.83;13.00;;;;;;;17.96;54.74;101630.81;5071546;28;20081;-62
2023/06/08 06:35:07;;;;;;;20.38;12.77;;;;;;;17.98;54.75;101634.16;5048232;28;20104;-64
2023/06/08 06:37:35;;;;;;;21.38;13.50;;;;;;;17.99;54.96;101640.59;5048835;28;20115;-64
2023/06/08 06:40:03;;;;;;;20.80;12.88;;;;;;;18.13;54.94;101644.53;5060511;28;20028;-64
2023/06/08 06:42:30;;;;;;;19.58;12.95;;;;;;;18.21;54.71;101649.56;5067334;28;20043;-63
2023/06/08 06:44:55;;;;;;;21.33;12.98;;;;;;;18.30;54.51;101641.38;5069955;28;20028;-63
2023/06/08 06:47:20;;;;;;;21.98;13.18;;;;;;;18.34;54.73;101648.09;5073370;28;20090;-63
2023/06/08 06:49:46;;;;;;;23.27;12.38;;;;;;;18.40;54.46;101641.34;5073320;28;20193;-63
2023/06/08 06:52:11;;;;;;;17.00;12.23;;;;;;;18.45;54.20;101651.72;5066011;28;20099;-63
2023/06/08 06:54:36;;;;;;;20.77;13.27;;;;;;;18.46;54.45;101643.00;5070789;28;20403;-63
2023/06/08 06:57:02;;;;;;;17.77;13.02;;;;;;;18.51;54.46;101642.13;5063082;28;20025;-63
2023/06/08 06:59:29;;;;;;;16.48;13.20;;;;;;;18.59;54.19;101648.03;5051539;28;20067;-63
2023/06/08 07:01:55;;;;;;;22.02;13.25;;;;;;;18.72;53.93;101648.56;5059236;28;20028;-63
2023/06/08 07:04:21;;;;;;;20.00;13.57;;;;;;;18.77;54.06;101648.53;5070604;28;20392;-64
2023/06/08 07:06:52;;;;;;;22.38;13.55;;;;;;;18.87;54.03;101651.28;5070244;28;20037;-64
2023/06/08 07:09:21;;;;;;;24.70;14.45;;;;;;;18.96;53.60;101649.53;5071815;28;20032;-63
2023/06/08 07:11:46;;;;;;;20.67;13.93;;;;;;;19.03;53.08;101641.63;5071235;28;20068;-63
2023/06/08 07:14:12;;;;;;;19.38;13.50;;;;;;;19.04;53.17;101648.94;5071003;28;20552;-64
2023/06/08 07:16:37;;;;;;;18.55;13.07;;;;;;;19.06;53.22;101648.63;5070876;28;20060;-64
2023/06/08 07:19:02;;;;;;;21.95;14.50;;;;;;;19.10;52.76;101658.19;5067855;28;20020;-64
2023/06/08 07:21:27;;;;;;;24.50;14.95;;;;;;;19.20;53.17;101652.47;5070385;28;20034;-63
2023/06/08 07:23:53;;;;;;;19.80;14.50;;;;;;;19.20;52.65;101652.47;5075392;28;20043;-64
2023/06/08 07:26:18;;;;;;;19.60;13.95;;;;;;;19.25;52.80;101652.44;5089595;28;20105;-65
2023/06/08 07:28:45;;;;;;;23.35;14.70;;;;;;;19.26;52.82;101651.34;5078693;28;20033;-64
2023/06/08 07:31:11;;;;;;;22.13;13.98;;;;;;;19.31;53.34;101651.28;5070027;28;20127;-65
2023/06/08 07:33:36;;;;;;;24.40;14.30;;;;;;;19.41;52.63;101646.69;5070808;28;20491;-64
2023/06/08 07:36:01;;;;;;;25.45;14.88;;;;;;;19.42;52.81;101642.78;5073787;28;20036;-64
2023/06/08 07:38:26;;;;;;;22.20;14.98;;;;;;;19.47;52.48;101643.56;5070205;28;20029;-64
2023/06/08 07:40:52;;;;;;;20.10;14.02;;;;;;;19.55;52.78;101639.28;5070616;28;20098;-65
2023/06/08 07:43:17;;;;;;;27.20;15.63;;;;;;;19.66;52.15;101642.88;5075083;28;20028;-64
2023/06/08 07:45:42;;;;;;;22.67;13.32;;;;;;;19.75;52.25;101638.28;5075212;28;20135;-64
2023/06/08 07:48:08;;;;;;;20.23;14.52;;;;;;;19.81;52.13;101637.94;5055512;28;20116;-65
2023/06/08 07:50:33;;;;;;;21.25;14.40;;;;;;;19.84;52.60;101630.88;5067675;28;20119;-62
2023/06/08 07:52:58;;;;;;;19.60;14.35;;;;;;;19.90;52.19;101631.66;5070471;28;20028;-64
2023/06/08 07:55:24;;;;;;;21.45;13.50;;;;;;;19.98;51.80;101640.31;5070144;28;20769;-66
2023/06/08 07:57:50;;;;;;;18.35;14.88;;;;;;;19.98;51.50;101637.50;5063664;28;20036;-64
2023/06/08 08:00:16;;;;;;;22.95;14.52;;;;;;;19.98;51.99;101642.28;5063793;28;20521;-63
2023/06/08 08:02:41;;;;;;;24.10;14.85;;;;;;;20.05;51.85;101637.16;5066893;28;20089;-64
2023/06/08 08:05:10;;;;;;;18.10;13.70;;;;;;;20.07;51.58;101635.69;5070073;28;20024;-63
2023/06/08 08:07:36;;;;;;;19.67;13.20;;;;;;;20.18;52.08;101636.44;5070574;28;20069;-64
2023/06/08 08:10:03;;;;;;;20.60;15.02;;;;;;;20.24;51.73;101634.38;5070555;28;20036;-63
2023/06/08 08:12:28;;;;;;;23.80;14.75;;;;;;;20.30;51.16;101630.38;5069769;28;20383;-64
2023/06/08 08:14:53;;;;;;;19.48;14.07;;;;;;;20.31;51.54;101629.22;5071061;28;20072;-63
2023/06/08 08:17:19;;;;;;;18.95;14.18;;;;;;;20.38;51.62;101635.34;5063000;28;20055;-64
2023/06/08 08:19:44;;;;;;;22.25;13.90;;;;;;;20.47;51.62;101632.69;5070968;28;20380;-64
2023/06/08 08:22:09;;;;;;;22.23;13.48;;;;;;;20.52;51.25;101630.72;5070216;28;20024;-64
2023/06/08 08:24:36;;;;;;;27.98;13.50;;;;;;;20.57;50.90;101630.63;5069855;28;20067;-64
2023/06/08 08:27:02;;;;;;;21.05;12.90;;;;;;;20.64;51.00;101632.25;5069591;28;20044;-64
2023/06/08 08:29:27;;;;;;;22.10;13.43;;;;;;;20.73;50.41;101625.63;5067415;28;20084;-64
2023/06/08 08:31:52;;;;;;;19.67;13.65;;;;;;;20.76;50.76;101630.66;5054386;28;20029;-63
2023/06/08 08:34:18;;;;;;;23.55;14.63;;;;;;;20.80;50.68;101633.72;5050501;28;20056;-64
2023/06/08 08:36:43;;;;;;;19.15;14.55;;;;;;;20.78;51.27;101628.38;5050449;28;20036;-64
2023/06/08 08:39:10;;;;;;;18.88;14.35;;;;;;;20.87;50.77;101627.69;5049844;28;20029;-64
2023/06/08 08:41:40;;;;;;;23.10;13.45;;;;;;;20.97;51.14;101633.19;5070263;28;20028;-65
2023/06/08 08:44:08;;;;;;;19.55;13.65;;;;;;;21.02;50.22;101624.66;5070608;28;20028;-64
2023/06/08 08:46:34;;;;;;;20.17;13.35;;;;;;;21.05;51.45;101621.22;5069376;28;20099;-64
2023/06/08 08:49:04;;;;;;;20.02;14.15;;;;;;;21.13;50.56;101623.34;5060727;28;20128;-64
2023/06/08 08:51:32;;;;;;;17.83;12.85;;;;;;;21.21;50.25;101621.81;5068865;28;20033;-64
2023/06/08 08:54:00;;;;;;;19.70;12.88;;;;;;;21.24;50.37;101619.22;5080907;28;20099;-64
2023/06/08 08:56:26;;;;;;;15.52;13.48;;;;;;;21.31;50.38;101622.50;5069121;28;20048;-64
2023/06/08 08:58:52;;;;;;;20.17;13.57;;;;;;;21.38;49.94;101618.47;5069976;28;20071;-64
2023/06/08 09:01:18;;;;;;;22.33;13.82;;;;;;;21.45;49.95;101616.09;5068383;28;20032;-64
2023/06/08 09:03:44;;;;;;;17.10;12.10;;;;;;;21.48;50.29;101615.50;5070056;28;20055;-64
2023/06/08 09:06:09;;;;;;;21.08;12.60;;;;;;;21.54;50.14;101623.59;5068825;28;20376;-64
2023/06/08 09:08:35;;;;;;;18.60;12.40;;;;;;;21.55;49.66;101613.13;5069597;28;20036;-63
2023/06/08 09:11:04;;;;;;;17.83;12.82;;;;;;;21.60;49.43;101617.84;5065954;28;20092;-64
2023/06/08 09:13:30;;;;;;;16.65;11.65;;;;;;;21.60;49.81;101621.50;5062949;28;20056;-64
2023/06/08 09:15:55;;;;;;;20.45;13.48;;;;;;;21.60;49.22;101610.19;5069735;28;20035;-64
2023/06/08 09:18:21;;;;;;;16.48;12.00;;;;;;;21.64;49.63;101608.44;5069127;28;20033;-64
2023/06/08 09:20:46;;;;;;;17.70;12.50;;;;;;;21.69;49.54;101604.66;5069023;28;20464;-63
2023/06/08 09:23:24;;;;;;;13.52;11.05;;;;;;;21.80;49.78;101604.16;5069212;28;20032;-63
2023/06/08 09:25:51;;;;;;;21.77;11.30;;;;;;;21.87;49.38;101603.78;5070079;28;20048;-63
2023/06/08 09:28:28;;;;;;;14.57;11.57;;;;;;;21.96;49.20;101607.53;5067313;28;20060;-64
2023/06/08 09:30:57;;;;;;;13.20;10.93;;;;;;;22.01;49.58;101603.81;5064640;28;20029;-63
2023/06/08 09:33:25;;;;;;;17.05;10.60;;;;;;;22.02;48.29;101597.00;5069766;28;20715;-64
2023/06/08 09:35:56;;;;;;;15.00;10.85;;;;;;;22.02;48.05;101600.66;5068522;28;20171;-64
2023/06/08 09:38:25;;;;;;;12.68;10.00;;;;;;;22.05;48.72;101594.38;5069718;28;20053;-64
2023/06/08 09:40:51;;;;;;;14.68;10.80;;;;;;;22.13;48.56;101595.69;5068627;28;20040;-64
2023/06/08 09:43:34;;;;;;;14.77;10.05;;;;;;;22.18;48.94;101589.91;5068338;28;20097;-65
2023/06/08 09:45:59;;;;;;;14.48;9.90;;;;;;;22.26;48.17;101589.19;5069897;28;20025;-64
2023/06/08 09:48:24;;;;;;;16.55;10.50;;;;;;;22.30;48.34;101592.22;5062317;28;20029;-64
2023/06/08 09:50:56;;;;;;;13.15;9.55;;;;;;;22.37;48.57;101594.63;5068450;28;20052;-64
2023/06/08 09:53:22;;;;;;;17.73;10.63;;;;;;;22.44;48.38;101583.72;5069398;28;20452;-64
2023/06/08 09:55:49;;;;;;;14.98;10.13;;;;;;;22.53;48.40;101587.50;5068395;28;20038;-65
2023/06/08 09:58:15;;;;;;;13.68;10.63;;;;;;;22.53;48.03;101577.00;5069292;28;20476;-64
2023/06/08 10:00:42;;;;;;;14.60;10.75;;;;;;;22.61;47.73;101583.91;5068269;28;20033;-64
2023/06/08 10:03:19;;;;;;;18.33;10.43;;;;;;;22.67;48.51;101582.63;5068862;28;20388;-64
2023/06/08 10:05:46;;;;;;;15.15;9.90;;;;;;;22.71;48.43;101575.19;5067500;28;20037;-64
2023/06/08 10:08:18;;;;;;;11.55;7.68;;;;;;;22.85;47.83;101572.31;5067340;28;20486;-65
2023/06/08 10:10:44;;;;;;;10.63;6.93;;;;;;;22.94;47.72;101576.09;5067810;28;20476;-64
2023/06/08 10:13:10;;;;;;;13.60;8.77;;;;;;;22.97;47.40;101572.63;5065181;28;20446;-66
2023/06/08 10:15:37;;;;;;;13.80;10.75;;;;;;;22.93;47.45;101577.25;5065078;28;20032;-62
2023/06/08 10:18:03;;;;;;;14.35;9.43;;;;;;;22.98;46.53;101570.63;5074918;28;20040;-62
2023/06/08 10:20:30;;;;;;;15.02;9.00;;;;;;;23.00;46.53;101574.00;5063684;28;20037;-63
2023/06/08 10:22:58;;;;;;;14.73;7.93;;;;;;;23.00;46.96;101569.16;5074902;28;20024;-63
2023/06/08 10:25:28;;;;;;;10.95;7.75;;;;;;;23.04;46.20;101560.88;5061117;28;20033;-65
2023/06/08 10:27:54;;;;;;;11.88;7.50;;;;;;;23.06;46.64;101567.03;5067337;28;20033;-64
2023/06/08 10:30:27;;;;;;;11.65;6.47;;;;;;;23.08;45.72;101567.56;5071154;28;20192;-64
2023/06/08 10:32:55;;;;;;;9.20;7.10;;;;;;;23.11;46.03;101566.94;5078593;28;20131;-64
2023/06/08 10:35:20;;;;;;;11.65;6.68;;;;;;;23.14;45.79;101559.78;5077160;28;20024;-63
2023/06/08 10:37:46;;;;;;;9.52;6.35;;;;;;;23.23;45.67;101558.69;5070522;28;20037;-64
2023/06/08 10:40:12;;;;;;;12.50;5.53;;;;;;;23.31;46.01;101559.09;5063232;28;20067;-63
2023/06/08 10:42:49;;;;;;;11.23;6.90;;;;;;;23.40;46.07;101551.47;5067520;28;20115;-63
2023/06/08 10:45:15;;;;;;;10.57;7.32;;;;;;;23.46;45.82;101541.66;5078698;28;20059;-64
2023/06/08 10:47:42;;;;;;;13.15;7.80;;;;;;;23.53;45.13;101544.88;5070075;28;20037;-63
2023/06/08 10:50:09;;;;;;;9.15;6.68;;;;;;;23.57;45.17;101545.91;5066351;28;20029;-63
2023/06/08 10:52:45;;;;;;;9.98;6.65;;;;;;;23.54;45.47;101543.75;5064584;28;20040;-63
2023/06/08 10:55:12;;;;;;;9.63;7.07;;;;;;;23.51;44.66;101550.88;5081077;28;20430;-64
2023/06/08 10:57:40;;;;;;;10.10;6.72;;;;;;;23.50;44.62;101549.22;5065303;28;20052;-64
2023/06/08 11:00:25;;;;;;;8.75;6.45;;;;;;;23.51;44.78;101548.06;5063166;28;20060;-64
2023/06/08 11:02:51;;;;;;;11.68;7.53;;;;;;;23.45;44.33;101540.00;5062046;28;20067;-64
2023/06/08 11:05:16;;;;;;;12.32;7.13;;;;;;;23.44;44.50;101536.34;5066228;28;20029;-65
2023/06/08 11:07:42;;;;;;;12.88;8.00;;;;;;;23.56;44.58;101537.75;5076033;28;20028;-63
2023/06/08 11:10:08;;;;;;;10.55;7.40;;;;;;;23.58;45.22;101535.41;5057635;28;20037;-64
2023/06/08 11:12:33;;;;;;;11.90;7.35;;;;;;;23.60;44.27;101525.44;5068477;28;20048;-66